Time;durP1;ratioP1;P1;durP2;ratioP2;P2;SDS_P1;SDS_P2;PMS_P1;PMS_P2;Temp;Humidity;BMP_temperature;BMP_pressure;BME280_temperature;BME280_humidity;BME280_pressure;Samples;Min_cycle;Max_cycle;Signal;HPM_P1;HPM_P2
2022/11/27 00:01:25;;;;;;;;;;;;;;;14.10;nan;102984.88;5050434;28;19917;-31
2022/11/27 00:03:50;;;;;;;;;;;;;;;14.10;nan;102988.41;5049921;28;20015;-31
2022/11/27 00:06:16;;;;;;;;;;;;;;;14.12;nan;102988.19;5050626;28;20400;-31
2022/11/27 00:08:42;;;;;;;;;;;;;;;14.12;nan;102988.19;5055451;28;19924;-31
2022/11/27 00:11:09;;;;;;;;;;;;;;;14.12;nan;102988.19;5051305;28;19931;-31
2022/11/27 00:13:35;;;;;;;;;;;;;;;14.09;nan;102984.06;5050464;28;20008;-31
2022/11/27 00:16:00;;;;;;;;;;;;;;;14.08;nan;102984.28;5055298;28;20371;-31
2022/11/27 00:18:25;;;;;;;;;;;;;;;14.07;nan;102988.84;5051895;28;19917;-31
2022/11/27 00:20:51;;;;;;;;;;;;;;;14.08;nan;102984.28;5052502;28;20399;-31
2022/11/27 00:23:16;;;;;;;;;;;;;;;14.08;nan;102984.28;5053041;28;20324;-31
2022/11/27 00:25:48;;;;;;;;;;;;;;;14.10;nan;102987.56;5053814;28;20304;-31
2022/11/27 00:28:13;;;;;;;;;;;;;;;14.07;nan;102983.44;5050695;28;20015;-31
2022/11/27 00:30:38;;;;;;;;;;;;;;;14.04;nan;102988.44;5051335;28;20032;-31
2022/11/27 00:33:04;;;;;;;;;;;;;;;14.03;nan;102984.09;5050871;28;20365;-31
2022/11/27 00:35:29;;;;;;;;;;;;;;;14.02;nan;102983.28;5059924;28;20336;-31
2022/11/27 00:37:54;;;;;;;;;;;;;;;14.03;nan;102971.47;5056936;28;21180;-31
2022/11/27 00:40:20;;;;;;;;;;;;;;;14.01;nan;102968.16;5054784;28;20381;-31
2022/11/27 00:42:45;;;;;;;;;;;;;;;14.02;nan;102977.06;5052766;28;20509;-31
2022/11/27 00:45:10;;;;;;;;;;;;;;;14.01;nan;102978.94;5061779;28;20356;-31
2022/11/27 00:47:36;;;;;;;;;;;;;;;13.97;nan;102969.59;5060414;28;20356;-31
2022/11/27 00:50:01;;;;;;;;;;;;;;;13.95;nan;102979.78;5055778;28;19924;-31
2022/11/27 00:52:26;;;;;;;;;;;;;;;13.95;nan;102965.47;5044009;28;19921;-31
2022/11/27 00:54:52;;;;;;;;;;;;;;;13.91;nan;102967.78;5054310;28;19928;-31
2022/11/27 00:57:17;;;;;;;;;;;;;;;13.90;nan;102963.44;5052717;28;20252;-31
2022/11/27 00:59:42;;;;;;;;;;;;;;;13.91;nan;102960.53;5058283;28;19940;-31
2022/11/27 01:02:08;;;;;;;;;;;;;;;13.94;nan;102959.25;5054821;28;19916;-31
2022/11/27 01:04:33;;;;;;;;;;;;;;;13.91;nan;102975.88;5053465;28;20306;-31
2022/11/27 01:06:58;;;;;;;;;;;;;;;13.92;nan;102985.59;5058143;28;19916;-31
2022/11/27 01:09:24;;;;;;;;;;;;;;;13.94;nan;102985.38;5049890;28;20296;-31
2022/11/27 01:11:49;;;;;;;;;;;;;;;13.96;nan;102978.75;5049824;28;20019;-32
2022/11/27 01:14:16;;;;;;;;;;;;;;;13.99;nan;102983.69;5050482;28;20299;-31
2022/11/27 01:16:42;;;;;;;;;;;;;;;14.00;nan;102985.34;5054045;28;19924;-31
2022/11/27 01:19:08;;;;;;;;;;;;;;;14.00;nan;102985.34;5051227;28;20360;-31
2022/11/27 01:21:34;;;;;;;;;;;;;;;14.01;nan;102981.63;5049292;28;20303;-31
2022/11/27 01:24:00;;;;;;;;;;;;;;;14.04;nan;102974.97;5053783;28;19916;-31
2022/11/27 01:26:26;;;;;;;;;;;;;;;14.04;nan;102975.81;5057494;28;19980;-31
2022/11/27 01:28:55;;;;;;;;;;;;;;;14.04;nan;102975.81;5055457;28;19921;-31
2022/11/27 01:31:22;;;;;;;;;;;;;;;14.04;nan;102980.38;5054347;28;19925;-31
2022/11/27 01:33:51;;;;;;;;;;;;;;;14.04;nan;102975.81;5050069;28;20001;-31
2022/11/27 01:36:16;;;;;;;;;;;;;;;14.03;nan;102968.75;5049110;28;20380;-31
2022/11/27 01:38:41;;;;;;;;;;;;;;;14.03;nan;102970.63;5050625;28;19963;-31
2022/11/27 01:41:27;;;;;;;;;;;;;;;13.99;nan;102967.53;5049170;28;20175;-31
2022/11/27 01:43:54;;;;;;;;;;;;;;;13.96;nan;102964.44;5054845;28;20379;-31
2022/11/27 01:46:38;;;;;;;;;;;;;;;13.92;nan;102953.28;5053439;28;19927;-31
2022/11/27 01:49:09;;;;;;;;;;;;;;;13.84;nan;102956.22;5049342;28;20069;-31
2022/11/27 01:51:36;;;;;;;;;;;;;;;13.81;nan;102953.94;5049550;28;19920;-31
2022/11/27 01:54:01;;;;;;;;;;;;;;;13.82;nan;102966.38;5053196;28;19917;-31
2022/11/27 01:56:28;;;;;;;;;;;;;;;13.83;nan;102957.28;5049801;28;20391;-31
2022/11/27 01:58:55;;;;;;;;;;;;;;;13.84;nan;102961.63;5047237;28;19971;-31
2022/11/27 02:01:23;;;;;;;;;;;;;;;13.85;nan;102965.97;5056807;28;20323;-31
2022/11/27 02:03:48;;;;;;;;;;;;;;;13.83;nan;102959.97;5064513;28;20020;-31
2022/11/27 02:06:14;;;;;;;;;;;;;;;13.82;nan;102944.81;5055725;28;20419;-31
2022/11/27 02:08:40;;;;;;;;;;;;;;;13.82;nan;102936.72;5051438;28;20314;-31
2022/11/27 02:11:13;;;;;;;;;;;;;;;13.83;nan;102941.09;5050488;28;19921;-32
2022/11/27 02:13:43;;;;;;;;;;;;;;;13.83;nan;102933.03;5049053;28;19939;-32
2022/11/27 02:16:08;;;;;;;;;;;;;;;13.84;nan;102935.50;5050760;28;19973;-32
2022/11/27 02:18:54;;;;;;;;;;;;;;;13.82;nan;102942.13;5046511;28;19921;-32
2022/11/27 02:21:19;;;;;;;;;;;;;;;13.84;nan;102934.69;5049411;28;19923;-32
2022/11/27 02:23:48;;;;;;;;;;;;;;;13.87;nan;102932.38;5050052;28;19940;-33
2022/11/27 02:26:32;;;;;;;;;;;;;;;13.84;nan;102935.50;5052203;28;20402;-32
2022/11/27 02:29:00;;;;;;;;;;;;;;;13.86;nan;102929.91;5047703;28;20067;-32
2022/11/27 02:31:38;;;;;;;;;;;;;;;13.88;nan;102923.25;5056087;28;20463;-33
2022/11/27 02:34:22;;;;;;;;;;;;;;;13.89;nan;102922.19;5048037;28;19982;-33
2022/11/27 02:36:49;;;;;;;;;;;;;;;13.90;nan;102907.69;5047483;28;19960;-33
2022/11/27 02:39:17;;;;;;;;;;;;;;;13.94;nan;102899.97;5052594;28;19917;-32
2022/11/27 02:41:52;;;;;;;;;;;;;;;13.98;nan;102892.28;5052919;28;20020;-32
2022/11/27 02:44:19;;;;;;;;;;;;;;;14.00;nan;102877.53;5055762;28;19920;-32
2022/11/27 02:46:45;;;;;;;;;;;;;;;14.03;nan;102882.50;5048461;28;19920;-32
2022/11/27 02:49:13;;;;;;;;;;;;;;;14.05;nan;102877.72;5048370;28;19920;-32
2022/11/27 02:51:41;;;;;;;;;;;;;;;14.05;nan;102875.03;5050742;28;20360;-32
2022/11/27 02:54:08;;;;;;;;;;;;;;;14.08;nan;102868.38;5052557;28;19931;-33
2022/11/27 02:56:34;;;;;;;;;;;;;;;14.10;nan;102868.97;5050893;28;19921;-32
2022/11/27 02:59:01;;;;;;;;;;;;;;;14.14;nan;102864.78;5047888;28;19993;-32
2022/11/27 03:01:31;;;;;;;;;;;;;;;14.14;nan;102873.69;5061483;28;20299;-32
2022/11/27 03:03:58;;;;;;;;;;;;;;;14.14;nan;102871.00;5047381;28;20685;-32
2022/11/27 03:06:26;;;;;;;;;;;;;;;14.16;nan;102878.88;5050651;28;19964;-32
2022/11/27 03:08:53;;;;;;;;;;;;;;;14.15;nan;102886.13;5049378;28;19920;-32
2022/11/27 03:11:19;;;;;;;;;;;;;;;14.16;nan;102882.38;5050810;28;19920;-32
2022/11/27 03:13:47;;;;;;;;;;;;;;;14.19;nan;102886.53;5047500;28;19931;-32
2022/11/27 03:16:15;;;;;;;;;;;;;;;14.21;nan;102895.22;5050962;28;20180;-32
2022/11/27 03:18:47;;;;;;;;;;;;;;;14.19;nan;102892.75;5045151;28;20169;-33
2022/11/27 03:21:15;;;;;;;;;;;;;;;14.23;nan;102886.91;5051082;28;20365;-32
2022/11/27 03:23:40;;;;;;;;;;;;;;;14.25;nan;102895.59;5047810;28;20323;-32
2022/11/27 03:26:06;;;;;;;;;;;;;;;14.27;nan;102893.50;5049549;28;19924;-32
2022/11/27 03:28:32;;;;;;;;;;;;;;;14.27;nan;102898.91;5047828;28;20430;-32
2022/11/27 03:30:57;;;;;;;;;;;;;;;14.30;nan;102893.06;5050286;28;19936;-33
2022/11/27 03:33:22;;;;;;;;;;;;;;;14.31;nan;102894.72;5050511;28;19975;-32
2022/11/27 03:35:48;;;;;;;;;;;;;;;14.31;nan;102892.00;5055338;28;19923;-32
2022/11/27 03:38:13;;;;;;;;;;;;;;;14.31;nan;102890.13;5066255;28;19920;-32
2022/11/27 03:40:44;;;;;;;;;;;;;;;14.31;nan;102894.72;5061232;28;20544;-32
2022/11/27 03:43:17;;;;;;;;;;;;;;;14.31;nan;102900.09;5059347;28;19916;-32
2022/11/27 03:45:47;;;;;;;;;;;;;;;14.33;nan;102903.41;5056611;28;20292;-32
2022/11/27 03:48:22;;;;;;;;;;;;;;;14.34;nan;102905.06;5058684;28;19960;-32
2022/11/27 03:50:47;;;;;;;;;;;;;;;14.35;nan;102912.09;5055875;28;20114;-32
2022/11/27 03:53:12;;;;;;;;;;;;;;;14.34;nan;102905.06;5061827;28;20003;-32
2022/11/27 03:55:56;;;;;;;;;;;;;;;14.35;nan;102907.53;5058233;28;19931;-33
2022/11/27 03:58:43;;;;;;;;;;;;;;;14.32;nan;102901.75;5054743;28;20554;-32
2022/11/27 04:01:10;;;;;;;;;;;;;;;14.30;nan;102898.47;5059392;28;19920;-32
2022/11/27 04:03:35;;;;;;;;;;;;;;;14.28;nan;102897.84;5057495;28;19920;-33
2022/11/27 04:06:01;;;;;;;;;;;;;;;14.30;nan;102893.06;5060465;28;19924;-32
2022/11/27 04:08:27;;;;;;;;;;;;;;;14.29;nan;102891.41;5056855;28;19927;-33
2022/11/27 04:10:52;;;;;;;;;;;;;;;14.27;nan;102898.91;5057180;28;19979;-33
2022/11/27 04:13:18;;;;;;;;;;;;;;;14.25;nan;102899.13;5056996;28;20356;-32
2022/11/27 04:15:43;;;;;;;;;;;;;;;14.21;nan;102892.53;5052830;28;20144;-32
2022/11/27 04:18:09;;;;;;;;;;;;;;;14.18;nan;102904.59;5056652;28;20015;-33
2022/11/27 04:20:34;;;;;;;;;;;;;;;14.12;nan;102897.34;5060468;28;19920;-32
2022/11/27 04:23:00;;;;;;;;;;;;;;;14.10;nan;102898.63;5056875;28;19926;-32
2022/11/27 04:25:25;;;;;;;;;;;;;;;14.09;nan;102897.78;5055154;28;19982;-32
2022/11/27 04:27:51;;;;;;;;;;;;;;;14.06;nan;102903.63;5051416;28;20000;-32
2022/11/27 04:30:17;;;;;;;;;;;;;;;14.05;nan;102893.06;5057628;28;20410;-32
2022/11/27 04:32:42;;;;;;;;;;;;;;;14.04;nan;102894.94;5054135;28;19960;-32
2022/11/27 04:35:08;;;;;;;;;;;;;;;14.06;nan;102902.81;5050006;28;19920;-32
2022/11/27 04:37:33;;;;;;;;;;;;;;;14.09;nan;102897.78;5049777;28;19983;-32
2022/11/27 04:39:59;;;;;;;;;;;;;;;14.12;nan;102894.66;5054607;28;20007;-32
2022/11/27 04:42:24;;;;;;;;;;;;;;;14.14;nan;102895.25;5047642;28;19920;-33
2022/11/27 04:44:50;;;;;;;;;;;;;;;14.13;nan;102888.22;5057153;28;19916;-32
2022/11/27 04:47:15;;;;;;;;;;;;;;;14.12;nan;102891.97;5053860;28;19923;-32
2022/11/27 04:49:41;;;;;;;;;;;;;;;14.12;nan;102900.03;5052647;28;19977;-32
2022/11/27 04:52:06;;;;;;;;;;;;;;;14.14;nan;102903.34;5061082;28;19939;-32
2022/11/27 04:54:32;;;;;;;;;;;;;;;14.16;nan;102900.44;5056114;28;19978;-32
2022/11/27 04:56:57;;;;;;;;;;;;;;;14.17;nan;102894.81;5054865;28;19951;-32
2022/11/27 04:59:23;;;;;;;;;;;;;;;14.19;nan;102900.00;5056687;28;20541;-32
2022/11/27 05:01:48;;;;;;;;;;;;;;;14.20;nan;102897.09;5049212;28;19956;-32
2022/11/27 05:04:14;;;;;;;;;;;;;;;14.21;nan;102896.03;5054254;28;19920;-33
2022/11/27 05:06:40;;;;;;;;;;;;;;;14.21;nan;102896.03;5049589;28;19917;-32
2022/11/27 05:09:05;;;;;;;;;;;;;;;14.20;nan;102894.41;5053371;28;19916;-32
2022/11/27 05:11:31;;;;;;;;;;;;;;;14.20;nan;102882.78;5053420;28;19921;-32
2022/11/27 05:16:45;;;;;;;;;;;;;;;14.18;nan;102890.25;5051048;28;19932;-32
2022/11/27 05:19:11;;;;;;;;;;;;;;;14.19;nan;102889.22;5054365;28;19917;-33
2022/11/27 05:21:37;;;;;;;;;;;;;;;14.20;nan;102893.56;5055093;28;19917;-32
2022/11/27 05:24:02;;;;;;;;;;;;;;;14.21;nan;102890.66;5050021;28;19940;-32
2022/11/27 05:26:28;;;;;;;;;;;;;;;14.23;nan;102892.31;5047988;28;20356;-33
2022/11/27 05:28:53;;;;;;;;;;;;;;;14.24;nan;102894.78;5051191;28;20010;-32
2022/11/27 05:31:18;;;;;;;;;;;;;;;14.27;nan;102893.50;5052554;28;20494;-33
2022/11/27 05:33:44;;;;;;;;;;;;;;;14.27;nan;102893.50;5048513;28;20481;-32
2022/11/27 05:36:09;;;;;;;;;;;;;;;14.28;nan;102892.47;5050177;28;20295;-32
2022/11/27 05:38:34;;;;;;;;;;;;;;;14.27;nan;102891.63;5051673;28;20530;-32
2022/11/27 05:41:00;;;;;;;;;;;;;;;14.26;nan;102886.47;5049626;28;20011;-33
2022/11/27 05:43:25;;;;;;;;;;;;;;;14.27;nan;102893.50;5049755;28;20011;-32
2022/11/27 05:45:50;;;;;;;;;;;;;;;14.27;nan;102898.91;5051672;28;19971;-32
2022/11/27 05:48:16;;;;;;;;;;;;;;;14.27;nan;102891.63;5050235;28;19960;-32
2022/11/27 05:50:41;;;;;;;;;;;;;;;14.27;nan;102888.94;5050312;28;19921;-32
2022/11/27 05:53:06;;;;;;;;;;;;;;;14.26;nan;102886.47;5047477;28;20133;-33
2022/11/27 05:55:32;;;;;;;;;;;;;;;14.25;nan;102880.25;5048094;28;19963;-32
2022/11/27 05:57:57;;;;;;;;;;;;;;;14.27;nan;102882.72;5051904;28;19959;-32
2022/11/27 06:00:25;;;;;;;;;;;;;;;14.27;nan;102883.53;5050283;28;19924;-33
2022/11/27 06:02:51;;;;;;;;;;;;;;;14.27;nan;102882.72;5048302;28;20388;-32
2022/11/27 06:05:16;;;;;;;;;;;;;;;14.27;nan;102875.47;5048945;28;19924;-32
2022/11/27 06:07:41;;;;;;;;;;;;;;;14.25;nan;102876.72;5048923;28;19917;-32
2022/11/27 06:10:07;;;;;;;;;;;;;;;14.23;nan;102876.94;5049860;28;19923;-33
2022/11/27 06:12:32;;;;;;;;;;;;;;;14.25;nan;102874.03;5057586;28;20064;-32
2022/11/27 06:14:58;;;;;;;;;;;;;;;14.26;nan;102879.19;5056188;28;19955;-33
2022/11/27 06:17:23;;;;;;;;;;;;;;;14.28;nan;102881.69;5050180;28;19974;-32
2022/11/27 06:19:50;;;;;;;;;;;;;;;14.27;nan;102872.75;5057009;28;19917;-32
2022/11/27 06:22:15;;;;;;;;;;;;;;;14.28;nan;102873.59;5054917;28;19925;-32
2022/11/27 06:24:41;;;;;;;;;;;;;;;14.27;nan;102869.25;5049187;28;19970;-32
2022/11/27 06:27:06;;;;;;;;;;;;;;;14.29;nan;102869.84;5052458;28;19967;-33
2022/11/27 06:29:31;;;;;;;;;;;;;;;14.28;nan;102868.19;5048469;28;19963;-33
2022/11/27 06:31:57;;;;;;;;;;;;;;;14.27;nan;102861.97;5050913;28;19921;-32
2022/11/27 06:34:22;;;;;;;;;;;;;;;14.28;nan;102858.22;5055634;28;19917;-32
2022/11/27 06:36:49;;;;;;;;;;;;;;;14.26;nan;102860.31;5053155;28;19917;-32
2022/11/27 06:39:14;;;;;;;;;;;;;;;14.25;nan;102863.25;5049777;28;19928;-32
2022/11/27 06:41:40;;;;;;;;;;;;;;;14.23;nan;102865.34;5052231;28;19917;-32
2022/11/27 06:44:05;;;;;;;;;;;;;;;14.14;nan;102860.22;5048883;28;19932;-33
2022/11/27 06:46:31;;;;;;;;;;;;;;;14.09;nan;102859.22;5053288;28;19993;-33
2022/11/27 06:48:56;;;;;;;;;;;;;;;14.05;nan;102858.03;5052287;28;19920;-33
2022/11/27 06:51:23;;;;;;;;;;;;;;;14.03;nan;102854.72;5051650;28;19928;-32
2022/11/27 06:53:49;;;;;;;;;;;;;;;13.93;nan;102857.91;5051117;28;19924;-32
2022/11/27 06:56:16;;;;;;;;;;;;;;;13.90;nan;102845.69;5050712;28;20866;-32
2022/11/27 06:58:41;;;;;;;;;;;;;;;13.88;nan;102846.97;5048614;28;19917;-32
2022/11/27 07:01:08;;;;;;;;;;;;;;;13.84;nan;102846.59;5051321;28;19924;-32
2022/11/27 07:03:34;;;;;;;;;;;;;;;13.85;nan;102852.78;5055662;28;19963;-32
2022/11/27 07:06:00;;;;;;;;;;;;;;;13.87;nan;102850.69;5049303;28;20354;-32
2022/11/27 07:08:26;;;;;;;;;;;;;;;13.88;nan;102863.13;5052909;28;19931;-32
2022/11/27 07:10:51;;;;;;;;;;;;;;;13.87;nan;102864.19;5058158;28;19925;-32
2022/11/27 07:13:16;;;;;;;;;;;;;;;13.82;nan;102858.59;5055247;28;19962;-32
2022/11/27 07:15:42;;;;;;;;;;;;;;;13.82;nan;102858.59;5056408;28;19924;-32
2022/11/27 07:18:07;;;;;;;;;;;;;;;13.83;nan;102865.66;5052803;28;19923;-33
2022/11/27 07:20:32;;;;;;;;;;;;;;;13.79;nan;102864.44;5055016;28;19986;-33
2022/11/27 07:22:58;;;;;;;;;;;;;;;13.79;nan;102859.88;5054922;28;19924;-32
2022/11/27 07:25:23;;;;;;;;;;;;;;;13.79;nan;102864.44;5055577;28;19928;-32
2022/11/27 07:27:49;;;;;;;;;;;;;;;13.78;nan;102874.38;5056082;28;20338;-32
2022/11/27 07:30:14;;;;;;;;;;;;;;;13.79;nan;102875.19;5058185;28;19928;-32
2022/11/27 07:32:40;;;;;;;;;;;;;;;13.79;nan;102870.63;5054617;28;19939;-32
2022/11/27 07:35:06;;;;;;;;;;;;;;;13.82;nan;102869.38;5059621;28;19927;-33
2022/11/27 07:37:31;;;;;;;;;;;;;;;13.82;nan;102869.38;5054838;28;19939;-32
2022/11/27 07:39:57;;;;;;;;;;;;;;;13.84;nan;102857.34;5054819;28;19940;-32
2022/11/27 07:42:22;;;;;;;;;;;;;;;13.87;nan;102856.09;5056935;28;20277;-32
2022/11/27 07:44:47;;;;;;;;;;;;;;;13.87;nan;102850.69;5053054;28;20281;-32
2022/11/27 07:47:13;;;;;;;;;;;;;;;13.86;nan;102849.06;5051748;28;19931;-33
2022/11/27 07:49:38;;;;;;;;;;;;;;;13.85;nan;102856.31;5054405;28;19934;-32
2022/11/27 07:52:03;;;;;;;;;;;;;;;13.85;nan;102852.78;5053051;28;19956;-32
2022/11/27 07:54:29;;;;;;;;;;;;;;;13.89;nan;102856.69;5055271;28;19942;-32
2022/11/27 07:56:54;;;;;;;;;;;;;;;13.90;nan;102861.88;5053789;28;20372;-33
2022/11/27 07:59:19;;;;;;;;;;;;;;;13.88;nan;102860.44;5053633;28;20564;-32
2022/11/27 08:01:45;;;;;;;;;;;;;;;13.83;nan;102852.19;5057298;28;20380;-32
2022/11/27 08:04:10;;;;;;;;;;;;;;;13.81;nan;102847.00;5051379;28;19917;-32
2022/11/27 08:06:36;;;;;;;;;;;;;;;13.83;nan;102849.50;5051593;28;20011;-32
2022/11/27 08:09:01;;;;;;;;;;;;;;;13.84;nan;102851.16;5054353;28;19921;-32
2022/11/27 08:11:34;;;;;;;;;;;;;;;13.85;nan;102847.41;5056405;28;19927;-32
2022/11/27 08:14:01;;;;;;;;;;;;;;;13.84;nan;102843.06;5053708;28;19916;-31
2022/11/27 08:16:26;;;;;;;;;;;;;;;13.85;nan;102842.03;5052840;28;20403;-31
2022/11/27 08:18:52;;;;;;;;;;;;;;;13.86;nan;102840.97;5053144;28;19916;-31
2022/11/27 08:21:17;;;;;;;;;;;;;;;13.89;nan;102843.22;5050804;28;20007;-31
2022/11/27 08:23:43;;;;;;;;;;;;;;;13.87;nan;102845.31;5053907;28;19931;-31
2022/11/27 08:26:09;;;;;;;;;;;;;;;13.83;nan;102847.63;5053189;28;19927;-31
2022/11/27 08:28:34;;;;;;;;;;;;;;;13.82;nan;102847.81;5048945;28;20303;-31
2022/11/27 08:31:01;;;;;;;;;;;;;;;13.82;nan;102845.13;5050608;28;19921;-31
2022/11/27 08:33:26;;;;;;;;;;;;;;;13.83;nan;102838.72;5049127;28;19924;-31
2022/11/27 08:35:53;;;;;;;;;;;;;;;13.79;nan;102838.31;5051074;28;19917;-31
2022/11/27 08:38:18;;;;;;;;;;;;;;;13.77;nan;102840.41;5049862;28;19917;-31
2022/11/27 08:40:43;;;;;;;;;;;;;;;13.76;nan;102846.00;5052920;28;19924;-31
2022/11/27 08:43:09;;;;;;;;;;;;;;;13.76;nan;102843.31;5052513;28;20392;-31
2022/11/27 08:45:36;;;;;;;;;;;;;;;13.76;nan;102846.00;5052183;28;19932;-31
2022/11/27 08:48:01;;;;;;;;;;;;;;;13.80;nan;102839.13;5050369;28;20372;-32
2022/11/27 08:50:27;;;;;;;;;;;;;;;13.79;nan;102841.00;5052081;28;19917;-32
2022/11/27 08:52:52;;;;;;;;;;;;;;;13.82;nan;102839.72;5051589;28;19925;-31
2022/11/27 08:55:17;;;;;;;;;;;;;;;13.82;nan;102842.44;5051092;28;19916;-32
2022/11/27 08:57:43;;;;;;;;;;;;;;;13.80;nan;102839.13;5052336;28;20019;-32
2022/11/27 09:00:08;;;;;;;;;;;;;;;13.76;nan;102827.97;5049436;28;20043;-31
2022/11/27 09:02:34;;;;;;;;;;;;;;;13.77;nan;102828.78;5051490;28;19921;-31
2022/11/27 09:05:01;;;;;;;;;;;;;;;13.82;nan;102826.25;5050693;28;19921;-31
2022/11/27 09:07:27;;;;;;;;;;;;;;;13.88;nan;102822.72;5051407;28;19939;-31
2022/11/27 09:09:52;;;;;;;;;;;;;;;13.90;nan;102824.13;5054364;28;19940;-31
2022/11/27 09:12:18;;;;;;;;;;;;;;;13.94;nan;102829.91;5051561;28;19921;-31
2022/11/27 09:14:43;;;;;;;;;;;;;;;13.99;nan;102826.53;5050672;28;19935;-32
2022/11/27 09:17:08;;;;;;;;;;;;;;;13.99;nan;102827.38;5049769;28;20012;-32
2022/11/27 09:19:34;;;;;;;;;;;;;;;13.94;nan;102835.28;5042322;28;20023;-32
2022/11/27 09:21:59;;;;;;;;;;;;;;;13.94;nan;102829.91;5050378;28;20003;-32
2022/11/27 09:24:24;;;;;;;;;;;;;;;13.95;nan;102826.16;5050468;28;19917;-31
2022/11/27 09:26:50;;;;;;;;;;;;;;;13.99;nan;102827.38;5054345;28;20004;-31
2022/11/27 09:29:15;;;;;;;;;;;;;;;14.03;nan;102823.22;5051873;28;19928;-31
2022/11/27 09:31:40;;;;;;;;;;;;;;;14.05;nan;102826.50;5051165;28;19925;-32
2022/11/27 09:34:06;;;;;;;;;;;;;;;14.06;nan;102830.84;5055507;28;19954;-31
2022/11/27 09:36:31;;;;;;;;;;;;;;;14.05;nan;102829.19;5051152;28;19917;-31
2022/11/27 09:38:57;;;;;;;;;;;;;;;14.03;nan;102833.16;5054087;28;19924;-31
2022/11/27 09:41:32;;;;;;;;;;;;;;;14.05;nan;102831.91;5055937;28;19974;-31
2022/11/27 09:44:13;;;;;;;;;;;;;;;14.09;nan;102825.00;5050683;28;19947;-31
2022/11/27 09:46:40;;;;;;;;;;;;;;;14.14;nan;102824.34;5050251;28;19924;-32
2022/11/27 09:49:08;;;;;;;;;;;;;;;14.16;nan;102824.94;5051679;28;19956;-31
2022/11/27 09:51:36;;;;;;;;;;;;;;;14.15;nan;102823.28;5055331;28;19921;-32
2022/11/27 09:54:07;;;;;;;;;;;;;;;14.15;nan;102820.59;5053469;28;19963;-31
2022/11/27 09:56:34;;;;;;;;;;;;;;;14.15;nan;102818.72;5051609;28;20539;-32
2022/11/27 09:58:59;;;;;;;;;;;;;;;14.17;nan;102816.63;5049902;28;19925;-31
2022/11/27 10:01:26;;;;;;;;;;;;;;;14.25;nan;102810.16;5056174;28;19962;-32
2022/11/27 10:03:52;;;;;;;;;;;;;;;14.30;nan;102812.16;5050740;28;19916;-32
2022/11/27 10:06:25;;;;;;;;;;;;;;;14.31;nan;102819.22;5055930;28;19923;-31
2022/11/27 10:08:56;;;;;;;;;;;;;;;14.33;nan;102812.53;5050873;28;19931;-32
2022/11/27 10:11:21;;;;;;;;;;;;;;;14.35;nan;102815.00;5053274;28;20033;-32
2022/11/27 10:14:25;;;;;;;;;;;;;;;14.37;nan;102815.66;5053938;28;19920;-31
2022/11/27 10:16:57;;;;;;;;;;;;;;;14.34;nan;102805.28;4999938;28;20396;-32
2022/11/27 10:19:43;;;;;;;;;;;;;;;14.29;nan;102803.25;4993791;28;19925;-31
2022/11/27 10:22:08;;;;;;;;;;;;;;;14.27;nan;102801.84;5032287;28;19917;-32
2022/11/27 10:24:35;;;;;;;;;;;;;;;14.26;nan;102800.19;5048916;28;19921;-32
2022/11/27 10:27:02;;;;;;;;;;;;;;;14.29;nan;102807.81;5051479;28;19999;-32
2022/11/27 10:29:35;;;;;;;;;;;;;;;14.30;nan;102796.00;5052044;28;19921;-31
2022/11/27 10:32:04;;;;;;;;;;;;;;;14.32;nan;102794.72;5050411;28;20095;-31
2022/11/27 10:34:44;;;;;;;;;;;;;;;14.35;nan;102793.44;5053972;28;19920;-31
2022/11/27 10:37:29;;;;;;;;;;;;;;;14.35;nan;102783.47;5050088;28;19939;-32
2022/11/27 10:40:10;;;;;;;;;;;;;;;14.37;nan;102783.28;5050192;28;20119;-32
2022/11/27 10:42:47;;;;;;;;;;;;;;;14.39;nan;102782.00;5052772;28;19924;-32
2022/11/27 10:45:28;;;;;;;;;;;;;;;14.43;nan;102782.38;5059954;28;19924;-32
2022/11/27 10:47:53;;;;;;;;;;;;;;;14.45;nan;102789.22;5056126;28;20000;-31
2022/11/27 10:50:19;;;;;;;;;;;;;;;14.49;nan;102784.19;5055753;28;19924;-31
2022/11/27 10:52:59;;;;;;;;;;;;;;;14.47;nan;102784.44;5058022;28;19929;-31
2022/11/27 10:55:33;;;;;;;;;;;;;;;14.44;nan;102781.34;5055387;28;19930;-31
2022/11/27 10:58:17;;;;;;;;;;;;;;;14.49;nan;102776.09;5053398;28;19925;-32
2022/11/27 11:00:42;;;;;;;;;;;;;;;14.55;nan;102782.50;5056742;28;19916;-32
2022/11/27 11:03:14;;;;;;;;;;;;;;;14.57;nan;102777.69;5057511;28;20054;-31
2022/11/27 11:05:40;;;;;;;;;;;;;;;14.60;nan;102769.97;5061652;28;19916;-31
2022/11/27 11:08:13;;;;;;;;;;;;;;;14.62;nan;102767.03;5059642;28;20380;-31
2022/11/27 11:10:43;;;;;;;;;;;;;;;14.65;nan;102777.38;5055589;28;20066;-31
2022/11/27 11:13:14;;;;;;;;;;;;;;;14.63;nan;102772.22;5053228;28;19920;-31
2022/11/27 11:15:46;;;;;;;;;;;;;;;14.64;nan;102776.56;5056974;28;20055;-31
2022/11/27 11:18:21;;;;;;;;;;;;;;;14.63;nan;102771.38;5052366;28;19916;-32
2022/11/27 11:20:51;;;;;;;;;;;;;;;14.59;nan;102767.50;5055163;28;19925;-32
2022/11/27 11:23:36;;;;;;;;;;;;;;;14.56;nan;102774.19;5056813;28;19947;-32
2022/11/27 11:26:04;;;;;;;;;;;;;;;14.55;nan;102761.75;5054494;28;19918;-31
2022/11/27 11:28:30;;;;;;;;;;;;;;;14.60;nan;102756.47;5053656;28;19920;-32
2022/11/27 11:31:02;;;;;;;;;;;;;;;14.66;nan;102754.75;5056802;28;20621;-32
2022/11/27 11:33:28;;;;;;;;;;;;;;;14.69;nan;102735.41;5057783;28;19921;-32
2022/11/27 11:35:56;;;;;;;;;;;;;;;14.69;nan;102741.63;5056328;28;19925;-32
2022/11/27 11:38:30;;;;;;;;;;;;;;;14.71;nan;102744.91;5053320;28;19920;-32
2022/11/27 11:40:59;;;;;;;;;;;;;;;14.71;nan;102744.09;5056724;28;20412;-32
2022/11/27 11:43:26;;;;;;;;;;;;;;;14.73;nan;102742.84;5057362;28;20398;-32
2022/11/27 11:45:51;;;;;;;;;;;;;;;14.79;nan;102738.41;5054623;28;20380;-32
2022/11/27 11:48:22;;;;;;;;;;;;;;;14.84;nan;102743.09;5054111;28;19943;-32
2022/11/27 11:50:59;;;;;;;;;;;;;;;14.88;nan;102741.59;5054837;28;21309;-31
2022/11/27 11:53:34;;;;;;;;;;;;;;;14.89;nan;102733.25;5056002;28;20412;-32
2022/11/27 11:56:08;;;;;;;;;;;;;;;14.90;nan;102737.63;5056573;28;19917;-31
2022/11/27 11:58:52;;;;;;;;;;;;;;;14.92;nan;102727.44;5056781;28;19925;-32
2022/11/27 12:01:37;;;;;;;;;;;;;;;14.95;nan;102718.03;5057595;28;19925;-31
2022/11/27 12:04:21;;;;;;;;;;;;;;;14.97;nan;102724.03;5054510;28;20388;-32
2022/11/27 12:06:54;;;;;;;;;;;;;;;15.01;nan;102733.31;5058245;28;19917;-32
2022/11/27 12:09:19;;;;;;;;;;;;;;;15.01;nan;102728.75;5055819;28;19921;-32
2022/11/27 12:11:45;;;;;;;;;;;;;;;14.96;nan;102728.63;5059725;28;19935;-31
2022/11/27 12:14:15;;;;;;;;;;;;;;;14.94;nan;102728.03;5054935;28;19974;-31
2022/11/27 12:16:59;;;;;;;;;;;;;;;14.92;nan;102732.81;5050633;28;19962;-31
2022/11/27 12:19:43;;;;;;;;;;;;;;;14.87;nan;102726.44;5058595;28;19924;-32
2022/11/27 12:22:08;;;;;;;;;;;;;;;14.77;nan;102730.53;5059189;28;20299;-32
2022/11/27 12:24:43;;;;;;;;;;;;;;;14.74;nan;102716.69;5055951;28;19920;-32
2022/11/27 12:27:20;;;;;;;;;;;;;;;14.71;nan;102715.22;5054428;28;20393;-32
2022/11/27 12:29:52;;;;;;;;;;;;;;;14.74;nan;102709.41;5057838;28;19909;-31
2022/11/27 12:32:32;;;;;;;;;;;;;;;14.74;nan;102717.50;5058286;28;20705;-32
2022/11/27 12:35:09;;;;;;;;;;;;;;;14.79;nan;102714.94;5054430;28;19950;-32
2022/11/27 12:37:56;;;;;;;;;;;;;;;14.84;nan;102708.84;5057392;28;20481;-32
2022/11/27 12:40:40;;;;;;;;;;;;;;;14.93;nan;102706.66;5053264;28;19955;-31
2022/11/27 12:43:21;;;;;;;;;;;;;;;15.01;nan;102712.53;5052645;28;19940;-31
2022/11/27 12:45:56;;;;;;;;;;;;;;;15.05;nan;102694.00;5053351;28;20436;-31
2022/11/27 12:48:27;;;;;;;;;;;;;;;15.22;nan;102691.47;5053317;28;19920;-32
2022/11/27 12:50:55;;;;;;;;;;;;;;;15.26;nan;102688.09;5052114;28;19920;-31
2022/11/27 12:53:32;;;;;;;;;;;;;;;15.33;nan;102690.66;5047932;28;20292;-32
2022/11/27 12:56:00;;;;;;;;;;;;;;;15.57;nan;102678.00;5050560;28;20635;-32
2022/11/27 12:58:28;;;;;;;;;;;;;;;16.42;nan;102675.56;5049595;28;19924;-32
2022/11/27 13:01:02;;;;;;;;;;;;;;;17.46;nan;102664.44;5051924;28;20288;-32
2022/11/27 13:03:29;;;;;;;;;;;;;;;18.41;nan;102655.97;5051680;28;19928;-33
2022/11/27 13:05:58;;;;;;;;;;;;;;;18.66;nan;102652.75;5053370;28;20303;-33